Time;durP1;ratioP1;P1;durP2;ratioP2;P2;SDS_P1;SDS_P2;PMS_P1;PMS_P2;Temp;Humidity;BMP_temperature;BMP_pressure;BME280_temperature;BME280_humidity;BME280_pressure;Samples;Min_cycle;Max_cycle;Signal;HPM_P1;HPM_P2
2022/12/29 00:01:43;;;;;;;4.68;2.25;;;1.10;99.90;;;;;;4769124;30;20131;-72
2022/12/29 00:04:14;;;;;;;5.28;2.25;;;1.10;99.90;;;;;;4773491;30;20154;-72
2022/12/29 00:06:42;;;;;;;6.32;2.35;;;1.10;99.90;;;;;;4779775;29;20468;-72
2022/12/29 00:09:11;;;;;;;4.03;2.47;;;1.10;99.90;;;;;;4769409;30;20045;-72
2022/12/29 00:11:40;;;;;;;7.40;3.33;;;1.20;99.90;;;;;;4779500;30;20078;-72
2022/12/29 00:16:55;;;;;;;6.32;2.88;;;1.30;99.90;;;;;;4788225;29;20069;-72
2022/12/29 00:36:01;;;;;;;5.60;1.15;;;1.20;99.90;;;;;;4771262;30;20060;-72
2022/12/29 00:44:07;;;;;;;5.75;1.55;;;1.10;99.90;;;;;;4778511;29;20055;-72
2022/12/29 00:46:36;;;;;;;3.28;1.40;;;1.10;99.90;;;;;;4764710;30;20422;-72
2022/12/29 00:51:50;;;;;;;11.30;2.90;;;1.20;99.90;;;;;;4778798;30;20059;-71
2022/12/29 00:54:18;;;;;;;10.60;1.50;;;1.30;99.90;;;;;;4794238;29;20052;-72
2022/12/29 00:56:48;;;;;;;7.45;2.17;;;1.30;99.90;;;;;;4767469;30;20153;-71
2022/12/29 00:59:20;;;;;;;8.23;1.98;;;1.40;99.90;;;;;;4779473;30;20059;-72
2022/12/29 01:01:48;;;;;;;3.58;1.70;;;1.40;99.90;;;;;;4766504;30;20470;-73
2022/12/29 01:04:16;;;;;;;5.03;1.75;;;1.30;99.90;;;;;;4774563;30;20051;-72
2022/12/29 01:06:45;;;;;;;5.72;1.40;;;1.30;99.90;;;;;;4783607;29;20055;-72
2022/12/29 01:12:00;;;;;;;5.22;1.73;;;1.30;99.90;;;;;;4781251;29;20079;-72
2022/12/29 01:14:29;;;;;;;2.67;1.38;;;1.30;99.90;;;;;;4778565;30;20051;-72
2022/12/29 01:16:58;;;;;;;2.60;1.67;;;1.30;99.90;;;;;;4782032;30;20061;-73
2022/12/29 01:19:26;;;;;;;3.15;2.40;;;1.30;99.90;;;;;;4778048;29;20048;-72
2022/12/29 01:21:57;;;;;;;3.65;1.30;;;1.20;99.90;;;;;;4767011;30;20457;-73
2022/12/29 01:24:25;;;;;;;7.93;1.55;;;1.20;99.90;;;;;;4775496;30;20158;-72
2022/12/29 01:26:54;;;;;;;5.40;1.85;;;1.20;99.90;;;;;;4766315;30;20150;-73
2022/12/29 01:29:21;;;;;;;5.47;1.88;;;1.10;99.90;;;;;;4766017;30;20154;-71
2022/12/29 01:31:50;;;;;;;4.90;1.70;;;1.10;99.90;;;;;;4765067;30;20060;-73
2022/12/29 01:34:18;;;;;;;3.72;1.60;;;1.10;99.90;;;;;;4782711;30;20556;-73
2022/12/29 01:36:46;;;;;;;2.45;1.30;;;1.10;99.90;;;;;;4777890;29;20052;-72
2022/12/29 01:39:14;;;;;;;5.85;1.80;;;1.20;99.90;;;;;;4768969;30;20047;-72
2022/12/29 01:41:42;;;;;;;5.78;1.95;;;1.20;99.90;;;;;;4769747;29;20086;-72
2022/12/29 01:44:51;;;;;;;6.75;1.20;;;1.20;99.90;;;;;;4778424;29;20051;-72
2022/12/29 01:47:29;;;;;;;5.22;1.30;;;1.30;99.90;;;;;;4786181;29;20443;-73
2022/12/29 01:50:01;;;;;;;3.38;1.15;;;1.30;99.90;;;;;;4788691;29;20154;-73
2022/12/29 01:52:33;;;;;;;4.95;1.15;;;1.20;99.90;;;;;;4775641;30;20051;-72
2022/12/29 01:55:05;;;;;;;3.05;1.20;;;1.20;99.90;;;;;;4799535;29;20059;-73
2022/12/29 01:57:36;;;;;;;7.13;1.40;;;1.20;99.90;;;;;;4784413;29;20122;-73
2022/12/29 02:00:09;;;;;;;2.75;1.10;;;1.20;99.90;;;;;;4776841;30;20054;-72
2022/12/29 02:02:54;;;;;;;7.88;1.50;;;1.20;99.90;;;;;;4780276;30;20063;-72
2022/12/29 02:05:29;;;;;;;3.97;1.33;;;1.20;99.90;;;;;;4788028;29;20108;-68
2022/12/29 02:08:02;;;;;;;3.83;1.35;;;1.20;99.90;;;;;;4778157;29;20509;-68
2022/12/29 02:10:33;;;;;;;11.63;2.05;;;1.20;99.90;;;;;;4773984;30;20062;-69
2022/12/29 02:13:01;;;;;;;6.93;1.90;;;1.20;99.90;;;;;;4786079;30;20059;-68
2022/12/29 02:15:39;;;;;;;5.22;1.77;;;1.30;99.90;;;;;;4783792;29;20069;-68
2022/12/29 02:18:24;;;;;;;5.82;2.15;;;1.30;99.90;;;;;;4770552;30;20437;-69
2022/12/29 02:21:56;;;;;;;5.28;1.50;;;1.40;99.90;;;;;;4781939;29;20086;-69
2022/12/29 02:25:01;;;;;;;3.70;1.52;;;1.40;99.90;;;;;;4781286;30;20065;-69
2022/12/29 02:27:50;;;;;;;4.40;1.42;;;1.40;99.90;;;;;;4768110;30;20059;-69
2022/12/29 02:30:48;;;;;;;7.07;2.20;;;1.50;99.90;;;;;;4768903;30;20087;-68
2022/12/29 02:33:43;;;;;;;1.88;1.40;;;1.40;99.90;;;;;;4780134;29;20078;-70
2022/12/29 02:36:24;;;;;;;5.75;1.48;;;1.50;99.90;;;;;;4773848;30;20474;-68
2022/12/29 02:39:03;;;;;;;5.05;1.40;;;1.50;99.90;;;;;;4780853;30;20524;-69
2022/12/29 02:41:35;;;;;;;5.53;1.55;;;1.50;99.90;;;;;;4799105;29;20055;-69
2022/12/29 02:44:13;;;;;;;5.20;1.55;;;1.50;99.90;;;;;;4799963;29;20051;-69
2022/12/29 02:46:50;;;;;;;4.05;1.80;;;1.50;99.90;;;;;;4770902;30;20515;-70
2022/12/29 02:49:24;;;;;;;2.60;1.60;;;1.40;99.90;;;;;;4783021;30;20417;-68
2022/12/29 02:52:01;;;;;;;5.93;1.30;;;1.40;99.90;;;;;;4785350;29;20142;-68
2022/12/29 02:54:41;;;;;;;5.32;2.30;;;1.40;99.90;;;;;;4777706;29;20059;-69
2022/12/29 02:57:16;;;;;;;3.20;1.67;;;1.40;99.90;;;;;;4788258;29;20058;-69
2022/12/29 02:59:46;;;;;;;5.15;1.52;;;1.40;99.90;;;;;;4814143;29;20085;-69
2022/12/29 03:02:40;;;;;;;3.45;1.20;;;1.40;99.90;;;;;;4794526;29;20061;-69
2022/12/29 03:05:25;;;;;;;2.63;1.15;;;1.50;99.90;;;;;;4795812;29;20059;-69
2022/12/29 03:08:02;;;;;;;3.42;1.50;;;1.50;99.90;;;;;;4783803;30;20051;-68
2022/12/29 03:10:44;;;;;;;1.40;1.10;;;1.40;99.90;;;;;;4770464;29;20454;-68
2022/12/29 03:16:17;;;;;;;3.30;1.52;;;1.30;99.90;;;;;;4796486;29;20055;-69
2022/12/29 03:18:56;;;;;;;2.47;1.40;;;1.30;99.90;;;;;;4799474;29;20142;-68
2022/12/29 03:24:23;;;;;;;3.97;1.20;;;1.40;99.90;;;;;;4783278;29;20052;-68
2022/12/29 03:26:54;;;;;;;4.13;1.20;;;1.40;99.90;;;;;;4797873;29;20065;-68
2022/12/29 03:29:22;;;;;;;5.68;1.17;;;1.40;99.90;;;;;;4804454;29;20056;-68
2022/12/29 03:31:52;;;;;;;7.38;1.50;;;1.40;99.90;;;;;;4770672;30;20098;-68
2022/12/29 03:34:23;;;;;;;3.55;1.10;;;1.40;99.90;;;;;;4782179;29;20056;-70
2022/12/29 03:36:56;;;;;;;3.60;1.40;;;1.30;99.90;;;;;;4785050;29;20048;-68
2022/12/29 03:39:24;;;;;;;;;;;1.30;99.90;;;;;;4780683;30;20493;-68
2022/12/29 03:41:59;;;;;;;1.85;1.52;;;1.30;99.90;;;;;;4773624;30;20471;-69
2022/12/29 03:44:34;;;;;;;5.28;1.55;;;1.30;99.90;;;;;;4796093;29;20055;-69
2022/12/29 03:47:03;;;;;;;4.10;1.75;;;1.20;99.90;;;;;;4783503;29;20066;-70
2022/12/29 03:49:32;;;;;;;6.00;1.73;;;1.20;99.90;;;;;;4773113;29;20066;-69
2022/12/29 03:52:00;;;;;;;2.70;1.55;;;1.20;99.90;;;;;;4785204;29;20058;-69
2022/12/29 03:54:30;;;;;;;7.90;2.22;;;1.20;99.90;;;;;;4762775;30;20059;-69
2022/12/29 03:56:58;;;;;;;6.00;1.70;;;1.20;99.90;;;;;;4766843;30;20138;-69
2022/12/29 03:59:37;;;;;;;3.08;1.58;;;1.20;99.90;;;;;;4794356;29;20075;-71
2022/12/29 04:02:05;;;;;;;4.75;2.35;;;1.10;99.90;;;;;;4789623;29;20146;-69
2022/12/29 04:04:34;;;;;;;6.05;1.60;;;1.10;99.90;;;;;;4781793;29;20059;-69
2022/12/29 04:07:01;;;;;;;5.75;1.95;;;1.00;99.90;;;;;;4780614;30;20628;-69
2022/12/29 04:09:29;;;;;;;5.95;1.60;;;0.90;99.90;;;;;;4766100;30;20062;-69
2022/12/29 04:11:58;;;;;;;6.28;1.75;;;0.80;99.90;;;;;;4789151;29;20544;-69
2022/12/29 04:14:26;;;;;;;4.60;1.98;;;0.80;99.90;;;;;;4783961;30;20104;-69
2022/12/29 04:16:54;;;;;;;6.63;2.22;;;0.80;99.90;;;;;;4787559;29;20482;-70
2022/12/29 04:19:22;;;;;;;7.22;2.95;;;0.80;99.90;;;;;;4779574;29;20066;-69
2022/12/29 04:21:52;;;;;;;6.03;1.75;;;0.80;99.90;;;;;;4758554;29;20056;-69
2022/12/29 04:24:20;;;;;;;9.90;2.20;;;0.80;99.90;;;;;;4790885;29;20449;-68
2022/12/29 04:26:50;;;;;;;6.75;2.03;;;0.80;99.90;;;;;;4771385;30;20052;-70
2022/12/29 04:29:44;;;;;;;2.78;1.52;;;0.80;99.90;;;;;;4766361;30;20051;-68
2022/12/29 04:32:31;;;;;;;4.15;1.90;;;0.80;99.90;;;;;;4766667;30;20059;-68
2022/12/29 04:34:59;;;;;;;3.63;1.58;;;0.90;99.90;;;;;;4803460;29;20090;-69
2022/12/29 04:37:28;;;;;;;11.30;1.60;;;0.80;99.90;;;;;;4782424;29;20047;-69
2022/12/29 04:39:56;;;;;;;10.13;2.15;;;0.90;99.90;;;;;;4766494;29;20048;-68
2022/12/29 04:42:23;;;;;;;6.32;1.60;;;0.80;99.90;;;;;;4778757;30;20058;-69
2022/12/29 04:44:52;;;;;;;12.15;2.40;;;0.80;99.90;;;;;;4782903;29;20071;-69
2022/12/29 04:47:35;;;;;;;13.90;1.83;;;0.80;99.90;;;;;;4781508;29;20055;-70
2022/12/29 04:50:28;;;;;;;4.95;1.80;;;0.90;99.90;;;;;;4792492;29;20141;-69
2022/12/29 04:53:07;;;;;;;9.50;1.95;;;0.90;99.90;;;;;;4772482;30;20127;-72
2022/12/29 04:55:37;;;;;;;8.18;1.83;;;0.90;99.90;;;;;;4783181;30;20109;-69
2022/12/29 04:58:04;;;;;;;5.38;2.15;;;0.90;99.90;;;;;;4773574;29;20104;-68
2022/12/29 05:00:34;;;;;;;5.13;2.17;;;0.90;99.90;;;;;;4777429;30;20585;-69
2022/12/29 05:03:02;;;;;;;6.35;2.10;;;0.90;99.90;;;;;;4766498;30;20043;-69
2022/12/29 05:05:30;;;;;;;4.25;2.00;;;0.80;99.90;;;;;;4767366;30;20056;-68
2022/12/29 05:07:59;;;;;;;5.70;1.90;;;0.80;99.90;;;;;;4768814;30;20042;-68
2022/12/29 05:10:29;;;;;;;6.97;1.95;;;0.90;99.90;;;;;;4780925;29;20086;-68
2022/12/29 05:13:01;;;;;;;6.18;2.40;;;1.00;99.90;;;;;;4783504;29;20047;-69
2022/12/29 05:15:29;;;;;;;6.82;2.10;;;1.00;99.90;;;;;;4768903;30;20147;-68
2022/12/29 05:18:19;;;;;;;7.90;2.03;;;0.90;99.90;;;;;;4771323;30;20052;-68
2022/12/29 05:20:47;;;;;;;9.43;2.35;;;0.90;99.90;;;;;;4768430;30;20158;-67
2022/12/29 05:23:16;;;;;;;6.00;2.40;;;0.90;99.90;;;;;;4801910;29;20067;-69
2022/12/29 05:25:46;;;;;;;6.68;2.20;;;0.90;99.90;;;;;;4783015;30;20059;-70
2022/12/29 05:28:31;;;;;;;8.82;2.75;;;0.90;99.90;;;;;;4772863;30;20051;-69
2022/12/29 05:31:06;;;;;;;8.57;3.10;;;0.90;99.90;;;;;;4788794;29;20467;-69
2022/12/29 05:33:33;;;;;;;10.77;3.30;;;1.00;99.90;;;;;;4785591;30;20547;-69
2022/12/29 05:36:05;;;;;;;8.93;3.28;;;1.00;99.90;;;;;;4798566;29;20482;-68
2022/12/29 05:38:33;;;;;;;11.70;3.25;;;1.00;99.90;;;;;;4786383;29;20063;-69
2022/12/29 05:41:02;;;;;;;9.27;3.63;;;1.00;99.90;;;;;;4774668;30;20143;-69
2022/12/29 05:43:48;;;;;;;9.20;2.92;;;0.90;99.90;;;;;;4775331;30;20052;-70
2022/12/29 05:46:31;;;;;;;7.03;3.15;;;0.90;99.90;;;;;;4770224;30;20052;-68
2022/12/29 05:49:08;;;;;;;10.50;3.92;;;0.80;99.90;;;;;;4795312;29;20125;-69
2022/12/29 05:52:45;;;;;;;11.05;3.35;;;0.80;99.90;;;;;;4800143;29;20047;-68
2022/12/29 05:55:13;;;;;;;10.82;3.75;;;0.80;99.90;;;;;;4783573;30;20105;-68
2022/12/29 05:57:44;;;;;;;8.15;3.45;;;0.80;99.90;;;;;;4781865;29;20055;-68
2022/12/29 06:00:16;;;;;;;10.13;3.38;;;0.80;99.90;;;;;;4765961;30;20506;-69
2022/12/29 06:02:45;;;;;;;10.68;3.08;;;0.70;99.90;;;;;;4780357;29;20052;-70
2022/12/29 06:05:13;;;;;;;6.05;2.53;;;0.70;99.90;;;;;;4783830;30;20054;-68
2022/12/29 06:07:41;;;;;;;10.18;2.90;;;0.70;99.90;;;;;;4773890;29;20063;-68
2022/12/29 06:10:11;;;;;;;7.68;3.28;;;0.70;99.90;;;;;;4786001;29;20140;-72
2022/12/29 06:12:50;;;;;;;10.07;3.05;;;0.70;99.90;;;;;;4802840;29;20059;-72
2022/12/29 06:15:18;;;;;;;6.97;2.80;;;0.70;99.90;;;;;;4798188;29;20060;-71
2022/12/29 06:17:48;;;;;;;5.05;2.60;;;0.70;99.90;;;;;;4778211;29;20061;-71
2022/12/29 06:20:16;;;;;;;13.70;3.67;;;0.70;99.90;;;;;;4779103;30;20052;-71
2022/12/29 06:22:45;;;;;;;8.38;3.13;;;0.60;99.90;;;;;;4773771;29;20594;-72
2022/12/29 06:25:14;;;;;;;8.27;3.17;;;0.60;99.90;;;;;;4791290;29;20425;-71
2022/12/29 06:27:43;;;;;;;6.07;2.75;;;0.60;99.90;;;;;;4788063;29;21088;-72
2022/12/29 06:30:14;;;;;;;9.13;3.47;;;0.60;99.90;;;;;;4783680;30;20063;-72
2022/12/29 06:32:42;;;;;;;9.73;2.97;;;0.50;99.90;;;;;;4772875;30;20323;-70
2022/12/29 06:35:12;;;;;;;4.90;2.20;;;0.50;99.90;;;;;;4766879;30;20052;-71
2022/12/29 06:37:47;;;;;;;6.32;2.47;;;0.50;99.90;;;;;;4767104;30;20063;-71
2022/12/29 06:40:15;;;;;;;5.68;2.72;;;0.40;99.90;;;;;;4779248;29;20071;-72
2022/12/29 06:43:01;;;;;;;9.15;2.20;;;0.40;99.90;;;;;;4782432;30;20047;-71
2022/12/29 06:45:49;;;;;;;8.98;2.90;;;0.50;99.90;;;;;;4777011;30;20063;-72
2022/12/29 06:48:16;;;;;;;7.82;2.70;;;0.50;99.90;;;;;;4777241;30;20073;-71
2022/12/29 06:50:44;;;;;;;6.78;3.10;;;0.50;99.90;;;;;;4771818;29;20514;-72
2022/12/29 06:53:11;;;;;;;13.13;3.05;;;0.50;99.90;;;;;;4779153;30;20047;-71
2022/12/29 06:55:39;;;;;;;6.15;2.88;;;0.50;99.90;;;;;;4776322;30;20051;-73
2022/12/29 06:58:07;;;;;;;6.78;3.13;;;0.50;99.90;;;;;;4769090;30;20083;-71
2022/12/29 07:00:34;;;;;;;4.30;2.20;;;0.40;99.90;;;;;;4777344;29;20058;-74
2022/12/29 07:03:04;;;;;;;7.75;2.63;;;0.50;99.90;;;;;;4782865;29;20368;-73
2022/12/29 07:05:32;;;;;;;8.95;2.80;;;0.50;99.90;;;;;;4772025;30;20068;-74
2022/12/29 07:08:00;;;;;;;7.07;2.58;;;0.50;99.90;;;;;;4782266;30;20119;-72
2022/12/29 07:10:27;;;;;;;5.03;2.67;;;0.50;99.90;;;;;;4786588;29;20465;-75
2022/12/29 07:12:55;;;;;;;14.90;3.33;;;0.40;99.90;;;;;;4779804;29;20091;-73
2022/12/29 07:15:23;;;;;;;7.50;2.55;;;0.50;99.90;;;;;;4768018;30;20055;-68
2022/12/29 07:17:51;;;;;;;7.93;2.20;;;0.50;99.90;;;;;;4777053;30;20059;-68
2022/12/29 07:20:20;;;;;;;9.82;2.80;;;0.50;99.90;;;;;;4782153;30;20086;-69
2022/12/29 07:22:48;;;;;;;6.55;2.40;;;0.50;99.90;;;;;;4783380;30;20055;-68
2022/12/29 07:25:16;;;;;;;4.43;2.55;;;0.50;99.90;;;;;;4786409;29;20150;-69
2022/12/29 07:27:44;;;;;;;11.50;3.38;;;0.50;99.90;;;;;;4784452;29;20066;-68
2022/12/29 07:30:13;;;;;;;5.75;3.38;;;0.50;99.90;;;;;;4786773;29;20082;-68
2022/12/29 07:32:41;;;;;;;11.38;3.90;;;0.60;99.90;;;;;;4782649;29;20444;-68
2022/12/29 07:35:10;;;;;;;8.43;3.55;;;0.60;99.90;;;;;;4782835;29;20058;-68
2022/12/29 07:37:39;;;;;;;9.57;3.92;;;0.60;99.90;;;;;;4783963;29;20532;-69
2022/12/29 07:40:09;;;;;;;12.65;3.30;;;0.60;99.90;;;;;;4777357;29;20065;-73
2022/12/29 07:42:41;;;;;;;11.10;3.50;;;0.50;99.90;;;;;;4783852;30;20124;-73
2022/12/29 07:45:11;;;;;;;7.95;3.17;;;0.50;99.90;;;;;;4778010;30;20577;-73
2022/12/29 07:48:14;;;;;;;9.23;3.08;;;0.50;99.90;;;;;;4815863;29;20049;-73
2022/12/29 07:50:42;;;;;;;6.50;3.40;;;0.50;99.90;;;;;;4772417;29;20124;-74
2022/12/29 07:53:11;;;;;;;15.50;2.67;;;0.50;99.90;;;;;;4783799;29;20133;-69
2022/12/29 07:55:44;;;;;;;9.90;3.75;;;0.40;99.90;;;;;;4784619;29;20051;-75
2022/12/29 07:58:12;;;;;;;9.95;3.10;;;0.40;99.90;;;;;;4781812;29;20051;-73
2022/12/29 08:00:40;;;;;;;18.48;3.95;;;0.40;99.90;;;;;;4772920;30;20104;-73
2022/12/29 08:03:08;;;;;;;7.80;2.80;;;0.40;99.90;;;;;;4779008;30;20051;-73
2022/12/29 08:05:36;;;;;;;15.45;5.20;;;0.40;99.90;;;;;;4778276;30;20081;-70
2022/12/29 08:08:04;;;;;;;7.43;3.05;;;0.40;99.90;;;;;;4782532;29;20377;-71
2022/12/29 08:10:33;;;;;;;8.65;3.35;;;0.40;99.90;;;;;;4786031;29;20078;-73
2022/12/29 08:13:02;;;;;;;5.20;2.95;;;0.40;99.90;;;;;;4769501;29;20074;-73
2022/12/29 08:15:29;;;;;;;6.85;3.17;;;0.30;99.90;;;;;;4781699;29;20485;-70
2022/12/29 08:17:57;;;;;;;13.75;3.25;;;0.30;99.90;;;;;;4773723;29;20067;-69
2022/12/29 08:20:25;;;;;;;8.00;3.47;;;0.30;99.90;;;;;;4791449;29;20051;-73
2022/12/29 08:22:53;;;;;;;7.68;3.58;;;0.20;99.90;;;;;;4791632;29;20573;-75
2022/12/29 08:25:20;;;;;;;8.07;3.13;;;0.20;99.90;;;;;;4780177;29;20078;-76
2022/12/29 08:27:50;;;;;;;9.57;3.50;;;0.20;99.90;;;;;;4780044;29;20058;-75
2022/12/29 08:30:17;;;;;;;7.75;3.15;;;0.10;99.90;;;;;;4762888;30;20580;-74
2022/12/29 08:32:45;;;;;;;7.25;2.80;;;0.10;99.90;;;;;;4778308;29;20075;-69
2022/12/29 08:35:13;;;;;;;9.95;2.92;;;0.10;99.90;;;;;;4782669;29;20055;-70
2022/12/29 08:37:40;;;;;;;8.98;2.92;;;0.10;99.90;;;;;;4782459;29;20154;-70
2022/12/29 08:40:10;;;;;;;12.40;3.15;;;0.10;99.90;;;;;;4767128;30;20063;-70
2022/12/29 08:42:37;;;;;;;8.40;3.25;;;0.20;99.90;;;;;;4777007;30;20071;-72
2022/12/29 08:45:09;;;;;;;7.30;3.53;;;0.20;99.90;;;;;;4779971;30;20043;-73
2022/12/29 08:47:36;;;;;;;12.05;4.00;;;0.30;99.90;;;;;;4781458;29;20055;-73
2022/12/29 08:50:05;;;;;;;10.68;3.67;;;0.40;99.90;;;;;;4783667;29;20509;-73
2022/12/29 08:52:32;;;;;;;9.95;4.10;;;0.40;99.90;;;;;;4789498;29;20055;-72
2022/12/29 08:55:00;;;;;;;10.98;5.78;;;0.40;99.90;;;;;;4783275;30;20050;-73
2022/12/29 08:57:28;;;;;;;15.30;5.00;;;0.40;99.90;;;;;;4782284;29;20159;-73
2022/12/29 09:00:18;;;;;;;8.55;3.88;;;0.50;99.90;;;;;;4782151;30;20058;-73
2022/12/29 09:02:46;;;;;;;10.25;4.50;;;0.50;99.90;;;;;;4781301;30;20078;-74
2022/12/29 09:05:14;;;;;;;10.82;4.97;;;0.60;99.90;;;;;;4782799;30;20054;-73
2022/12/29 09:07:41;;;;;;;11.55;4.93;;;0.60;99.90;;;;;;4782907;29;20113;-74
2022/12/29 09:10:09;;;;;;;13.77;5.03;;;0.60;99.90;;;;;;4783924;29;20064;-70
2022/12/29 09:12:37;;;;;;;13.20;5.10;;;0.50;99.90;;;;;;4781452;29;20059;-69
2022/12/29 09:15:07;;;;;;;13.60;5.10;;;0.50;99.90;;;;;;4783305;29;20043;-71
2022/12/29 09:17:44;;;;;;;9.88;4.60;;;0.50;99.90;;;;;;4792503;29;20060;-69
2022/12/29 09:20:12;;;;;;;12.15;5.05;;;0.50;99.90;;;;;;4782869;29;20063;-69
2022/12/29 09:22:40;;;;;;;9.20;5.57;;;0.50;99.90;;;;;;4780731;29;20069;-71
2022/12/29 09:25:09;;;;;;;22.02;6.25;;;0.40;99.90;;;;;;4783799;29;20072;-72
2022/12/29 09:27:37;;;;;;;11.48;5.88;;;0.40;99.90;;;;;;4778689;29;20058;-71
2022/12/29 09:30:06;;;;;;;17.63;6.07;;;0.30;99.90;;;;;;4782138;29;20103;-70
2022/12/29 09:32:36;;;;;;;13.95;5.50;;;0.40;99.90;;;;;;4792333;29;20070;-70
2022/12/29 09:35:04;;;;;;;13.05;5.85;;;0.40;99.90;;;;;;4789239;29;20047;-70
2022/12/29 09:37:31;;;;;;;12.35;6.30;;;0.40;99.90;;;;;;4794357;29;20055;-71
2022/12/29 09:39:59;;;;;;;10.30;5.28;;;0.50;99.90;;;;;;4793310;29;20077;-72
2022/12/29 09:42:31;;;;;;;11.38;5.72;;;0.50;99.90;;;;;;4794951;29;20565;-71
2022/12/29 09:45:11;;;;;;;10.82;5.88;;;0.40;99.90;;;;;;4793961;29;20043;-72
2022/12/29 09:47:44;;;;;;;13.10;6.22;;;0.30;99.90;;;;;;4787471;29;20466;-71
2022/12/29 09:50:25;;;;;;;13.30;6.18;;;0.20;99.90;;;;;;4786450;29;20556;-73
2022/12/29 09:53:01;;;;;;;13.13;6.57;;;0.20;99.90;;;;;;4794936;29;20162;-70
2022/12/29 09:55:38;;;;;;;13.55;7.20;;;0.10;99.90;;;;;;4820499;29;20076;-69
2022/12/29 09:58:14;;;;;;;15.20;7.45;;;0.10;99.90;;;;;;4787735;29;20059;-73
2022/12/29 10:00:54;;;;;;;22.33;8.57;;;0.10;99.90;;;;;;4798902;29;20058;-72
2022/12/29 10:03:29;;;;;;;15.70;7.85;;;0.00;99.90;;;;;;4793727;29;20062;-69
2022/12/29 10:06:07;;;;;;;16.85;8.55;;;0.00;99.90;;;;;;4791496;29;20075;-69
2022/12/29 10:08:43;;;;;;;15.80;8.90;;;0.00;99.90;;;;;;4789133;29;20050;-70
2022/12/29 10:11:29;;;;;;;19.38;9.10;;;0.00;99.90;;;;;;4777372;29;20063;-70
2022/12/29 10:14:19;;;;;;;14.73;8.77;;;0.10;99.90;;;;;;4782994;29;20075;-70
2022/12/29 10:16:59;;;;;;;21.95;8.73;;;0.00;99.90;;;;;;4796458;29;20051;-73
2022/12/29 10:19:58;;;;;;;17.58;8.32;;;-0.10;99.90;;;;;;4798679;29;20086;-74
2022/12/29 10:22:44;;;;;;;17.02;9.23;;;0.00;99.90;;;;;;4787235;29;20070;-73
2022/12/29 10:25:19;;;;;;;18.92;10.23;;;0.00;99.90;;;;;;4792598;29;20059;-71
2022/12/29 10:27:50;;;;;;;27.35;9.93;;;0.00;99.90;;;;;;4795417;29;20059;-69
2022/12/29 10:30:19;;;;;;;25.83;10.18;;;0.00;99.90;;;;;;4794906;29;20054;-69
2022/12/29 10:32:52;;;;;;;20.38;10.15;;;-0.10;99.90;;;;;;4721133;29;20059;-69
2022/12/29 10:35:24;;;;;;;26.15;10.23;;;-0.10;99.90;;;;;;4753310;29;79145;-72
2022/12/29 10:38:00;;;;;;;17.65;9.10;;;0.00;99.90;;;;;;4792948;29;20424;-72
2022/12/29 10:40:37;;;;;;;22.10;9.40;;;-0.10;99.90;;;;;;4775578;29;58755;-71
2022/12/29 10:43:22;;;;;;;15.38;8.45;;;-0.10;99.90;;;;;;4780397;29;20753;-74
2022/12/29 10:45:57;;;;;;;19.63;8.60;;;-0.10;99.90;;;;;;4778891;29;20051;-73
2022/12/29 10:48:29;;;;;;;20.05;8.70;;;-0.10;99.90;;;;;;4779310;29;20090;-71
2022/12/29 10:51:02;;;;;;;18.25;8.40;;;-0.10;99.90;;;;;;4779745;29;20051;-70
2022/12/29 10:53:39;;;;;;;15.90;9.60;;;-0.10;99.90;;;;;;4777355;29;20055;-73
2022/12/29 10:56:18;;;;;;;17.48;8.82;;;0.00;99.90;;;;;;4777604;29;20051;-72
2022/12/29 10:58:50;;;;;;;19.33;9.75;;;0.00;99.90;;;;;;4773198;29;20146;-71
2022/12/29 11:01:18;;;;;;;26.75;10.65;;;0.00;99.90;;;;;;4783486;29;20067;-73
2022/12/29 11:04:04;;;;;;;14.60;8.35;;;-0.20;99.90;;;;;;4778786;29;20050;-72
2022/12/29 11:06:35;;;;;;;15.80;8.88;;;-0.10;99.90;;;;;;4776961;29;20506;-72
2022/12/29 11:09:16;;;;;;;17.73;8.50;;;-0.20;99.90;;;;;;4775886;29;20136;-73
2022/12/29 11:11:46;;;;;;;20.52;8.85;;;-0.30;99.90;;;;;;4762953;29;20054;-71
2022/12/29 11:14:21;;;;;;;17.13;8.50;;;-0.30;99.90;;;;;;4778618;29;20047;-70
2022/12/29 11:16:59;;;;;;;17.15;8.90;;;-0.30;99.90;;;;;;4777493;29;20055;-74
2022/12/29 11:19:30;;;;;;;18.65;8.10;;;-0.30;99.90;;;;;;4778145;29;20055;-73
2022/12/29 11:22:16;;;;;;;18.25;8.70;;;-0.30;99.90;;;;;;4780726;29;20427;-73
2022/12/29 11:24:52;;;;;;;18.48;8.32;;;-0.40;99.90;;;;;;4777166;29;20062;-70
2022/12/29 11:27:24;;;;;;;13.43;7.43;;;-0.60;99.90;;;;;;4780146;29;20059;-72
2022/12/29 11:29:54;;;;;;;17.73;8.95;;;-0.50;99.90;;;;;;4764967;29;20110;-72
2022/12/29 11:32:25;;;;;;;14.10;7.97;;;-0.50;99.90;;;;;;4778009;29;20051;-69
2022/12/29 11:34:55;;;;;;;14.93;7.72;;;-0.50;99.90;;;;;;4762986;29;20548;-69
2022/12/29 11:37:34;;;;;;;12.75;7.05;;;-0.50;99.90;;;;;;4791824;29;20067;-68
2022/12/29 11:40:08;;;;;;;18.35;7.72;;;-0.50;99.90;;;;;;4779551;29;20492;-72
2022/12/29 11:42:39;;;;;;;15.30;7.35;;;-0.50;99.90;;;;;;4768224;29;20051;-72
2022/12/29 11:45:17;;;;;;;12.63;7.15;;;-0.50;99.90;;;;;;4776636;29;20055;-70
2022/12/29 11:47:50;;;;;;;12.70;6.97;;;-0.60;99.90;;;;;;4777966;29;21759;-72
2022/12/29 11:50:26;;;;;;;12.02;6.72;;;-0.60;99.90;;;;;;4767416;29;20142;-70
2022/12/29 11:53:04;;;;;;;12.45;6.70;;;-0.50;99.90;;;;;;4778253;29;20512;-72
2022/12/29 11:55:36;;;;;;;10.45;6.53;;;-0.40;99.90;;;;;;4779013;29;20047;-72
2022/12/29 11:58:06;;;;;;;10.57;6.10;;;-0.40;99.90;;;;;;4775356;29;20142;-71
2022/12/29 12:00:40;;;;;;;11.98;5.65;;;-0.40;99.90;;;;;;4793763;29;20351;-72
2022/12/29 12:03:17;;;;;;;11.63;5.95;;;-0.40;99.90;;;;;;4791240;29;20051;-74
2022/12/29 12:05:54;;;;;;;10.57;5.47;;;-0.40;99.90;;;;;;4802307;29;20507;-73
2022/12/29 12:08:36;;;;;;;8.75;5.28;;;-0.40;99.90;;;;;;4781094;29;20061;-73
2022/12/29 12:11:12;;;;;;;6.22;4.47;;;-0.40;99.90;;;;;;4763990;29;20055;-73
2022/12/29 12:13:48;;;;;;;10.20;5.43;;;-0.30;99.90;;;;;;4763910;29;20055;-72
2022/12/29 12:16:24;;;;;;;12.35;4.93;;;-0.50;99.90;;;;;;4787733;29;20088;-71
2022/12/29 12:19:04;;;;;;;11.20;5.30;;;-0.50;99.90;;;;;;4778675;29;20149;-73
2022/12/29 12:21:41;;;;;;;10.27;5.88;;;-0.50;99.90;;;;;;4775916;29;20063;-73
2022/12/29 12:24:39;;;;;;;9.73;5.47;;;-0.50;99.90;;;;;;4777358;29;20059;-72
2022/12/29 12:27:16;;;;;;;10.85;6.30;;;-0.50;99.90;;;;;;4782798;29;20058;-70
2022/12/29 12:29:53;;;;;;;11.70;5.60;;;-0.70;99.90;;;;;;4778235;29;20145;-72
2022/12/29 12:32:28;;;;;;;11.07;4.97;;;-0.70;99.90;;;;;;4777187;29;20063;-71
2022/12/29 12:34:57;;;;;;;11.55;7.20;;;-0.70;99.90;;;;;;4777828;29;20061;-73
2022/12/29 12:37:57;;;;;;;6.97;4.53;;;-0.80;99.90;;;;;;4784444;29;20054;-73
2022/12/29 12:40:47;;;;;;;8.23;4.65;;;-0.90;99.90;;;;;;4777358;29;20066;-72
2022/12/29 12:43:41;;;;;;;9.35;4.22;;;-1.00;99.90;;;;;;4766337;29;20136;-72
2022/12/29 12:46:58;;;;;;;7.38;4.22;;;-1.00;99.90;;;;;;4779449;29;20055;-73
2022/12/29 12:50:17;;;;;;;10.60;4.78;;;-1.00;99.90;;;;;;4730609;29;20086;-70
2022/12/29 12:53:13;;;;;;;7.50;4.30;;;-1.00;99.90;;;;;;4761578;29;20047;-69
2022/12/29 12:56:10;;;;;;;6.90;4.60;;;-1.00;99.90;;;;;;4774032;29;20136;-69
2022/12/29 12:58:53;;;;;;;7.45;4.25;;;-0.90;99.90;;;;;;4763656;29;20051;-71
2022/12/29 13:01:37;;;;;;;8.27;4.82;;;-0.80;99.90;;;;;;4777671;29;20063;-68
2022/12/29 13:04:40;;;;;;;12.07;4.97;;;-0.90;99.90;;;;;;4783798;29;20052;-73
2022/12/29 13:07:23;;;;;;;10.35;4.95;;;-0.80;99.90;;;;;;4797249;29;20055;-71
2022/12/29 13:10:19;;;;;;;8.37;3.90;;;-0.90;99.90;;;;;;4779268;29;20049;-71
2022/12/29 13:12:59;;;;;;;11.02;4.53;;;-0.90;99.90;;;;;;4779829;29;20131;-72
2022/12/29 13:15:43;;;;;;;6.57;3.65;;;-0.90;99.90;;;;;;4783543;29;20055;-73
2022/12/29 13:18:25;;;;;;;8.40;4.18;;;-1.00;99.90;;;;;;4782595;29;20059;-71
2022/12/29 13:21:05;;;;;;;8.25;3.92;;;-1.00;99.90;;;;;;4775882;29;20068;-69
2022/12/29 13:23:41;;;;;;;9.20;4.10;;;-0.90;99.90;;;;;;4779819;30;20541;-69
2022/12/29 13:26:18;;;;;;;6.55;4.35;;;-0.90;99.90;;;;;;4778869;30;20139;-70
2022/12/29 13:28:55;;;;;;;8.95;3.95;;;-0.90;99.90;;;;;;4779916;29;20061;-72
2022/12/29 13:31:35;;;;;;;4.80;2.85;;;-0.90;99.90;;;;;;4781271;29;20090;-69
2022/12/29 13:34:16;;;;;;;6.90;3.53;;;-0.90;99.90;;;;;;4784287;29;20572;-69
2022/12/29 13:36:47;;;;;;;7.07;4.13;;;-1.00;99.90;;;;;;4783631;29;20058;-69
2022/12/29 13:39:21;;;;;;;4.60;3.28;;;-1.00;99.90;;;;;;4783814;29;20083;-68
2022/12/29 13:41:52;;;;;;;5.47;2.85;;;-1.00;99.90;;;;;;4783798;29;20055;-68
2022/12/29 13:44:28;;;;;;;6.15;3.40;;;-1.00;99.90;;;;;;4784418;29;20055;-69
2022/12/29 13:47:01;;;;;;;7.80;3.38;;;-1.00;99.90;;;;;;4781842;29;20120;-70
2022/12/29 13:49:31;;;;;;;5.13;3.15;;;-1.00;99.90;;;;;;4783653;29;20043;-70
2022/12/29 13:52:09;;;;;;;6.75;3.47;;;-1.00;99.90;;;;;;4784493;29;20051;-69
2022/12/29 13:54:44;;;;;;;7.65;3.00;;;-0.90;99.90;;;;;;4787825;29;20059;-70
2022/12/29 13:57:21;;;;;;;4.75;2.97;;;-0.90;99.90;;;;;;4784651;29;20059;-70
2022/12/29 13:59:58;;;;;;;4.78;3.05;;;-1.00;99.90;;;;;;4781510;30;20047;-69
2022/12/29 14:02:34;;;;;;;5.75;3.13;;;-1.00;99.90;;;;;;4785521;30;20055;-69
2022/12/29 14:05:04;;;;;;;3.88;2.83;;;-1.00;99.90;;;;;;4787934;29;20074;-71